sensor_id;sensor_type;location;lat;lon;timestamp;pressure;altitude;pressure_sealevel;temperature;humidity
21664;BME280;10993;52.510;13.456;2023-02-18T00:03:09;56572.94;;;-146.93;63.05
21664;BME280;10993;52.510;13.456;2023-02-18T00:08:09;56568.88;;;-146.93;63.64
21664;BME280;10993;52.510;13.456;2023-02-18T00:13:09;56392.75;;;-146.93;63.62
21664;BME280;10993;52.510;13.456;2023-02-18T00:18:11;56581.03;;;-146.93;63.13
21664;BME280;10993;52.510;13.456;2023-02-18T00:23:11;56568.88;;;-146.93;63.37
21664;BME280;10993;52.510;13.456;2023-02-18T00:28:12;56581.03;;;-146.93;63.90
21664;BME280;10993;52.510;13.456;2023-02-18T00:33:13;57642.16;;;-146.93;64.14
21664;BME280;10993;52.510;13.456;2023-02-18T00:38:14;56556.75;;;-146.93;64.48
21664;BME280;10993;52.510;13.456;2023-02-18T00:43:14;56595.22;;;-146.93;65.67
21664;BME280;10993;52.510;13.456;2023-02-18T00:48:16;56556.75;;;-146.93;65.86
21664;BME280;10993;52.510;13.456;2023-02-18T00:53:17;56558.75;;;-146.93;66.39
21664;BME280;10993;52.510;13.456;2023-02-18T00:58:17;56593.19;;;-146.93;67.41
21664;BME280;10993;52.510;13.456;2023-02-18T01:03:19;56585.09;;;-146.93;67.33
21664;BME280;10993;52.510;13.456;2023-02-18T01:08:21;56605.34;;;-146.93;67.33
21664;BME280;10993;52.510;13.456;2023-02-18T01:13:22;56568.88;;;-146.93;67.81
21664;BME280;10993;52.510;13.456;2023-02-18T01:18:25;56572.94;;;-146.93;67.40
21664;BME280;10993;52.510;13.456;2023-02-18T01:23:26;56550.66;;;-146.93;67.92
21664;BME280;10993;52.510;13.456;2023-02-18T01:28:26;56554.72;;;-146.93;67.73
21664;BME280;10993;52.510;13.456;2023-02-18T01:33:28;56566.88;;;-146.93;67.67
21664;BME280;10993;52.510;13.456;2023-02-18T01:38:28;56568.88;;;-146.93;67.40
21664;BME280;10993;52.510;13.456;2023-02-18T01:43:29;56605.34;;;-146.93;67.14
21664;BME280;10993;52.510;13.456;2023-02-18T01:48:33;56589.13;;;-146.93;66.98
21664;BME280;10993;52.510;13.456;2023-02-18T01:53:38;56589.13;;;-146.93;66.76
21664;BME280;10993;52.510;13.456;2023-02-18T01:58:40;56496.00;;;-146.93;67.08
21664;BME280;10993;52.510;13.456;2023-02-18T02:03:42;56447.41;;;-146.93;66.57
21664;BME280;10993;52.510;13.456;2023-02-18T02:08:43;56558.75;;;-146.93;66.88
21664;BME280;10993;52.510;13.456;2023-02-18T02:13:56;56540.53;;;-146.93;66.80
21664;BME280;10993;52.510;13.456;2023-02-18T02:19:09;56568.88;;;-146.93;66.85
21664;BME280;10993;52.510;13.456;2023-02-18T02:35:28;56532.44;;;-146.93;67.53
21664;BME280;10993;52.510;13.456;2023-02-18T02:40:37;56473.72;;;-146.93;67.72
21664;BME280;10993;52.510;13.456;2023-02-18T02:45:48;56585.09;;;-146.93;67.54
21664;BME280;10993;52.510;13.456;2023-02-18T02:50:54;56516.25;;;-146.93;67.56
21664;BME280;10993;52.510;13.456;2023-02-18T02:55:59;56585.09;;;-146.93;67.36
21664;BME280;10993;52.510;13.456;2023-02-18T03:01:13;56568.88;;;-146.93;67.60
21664;BME280;10993;52.510;13.456;2023-02-18T03:06:32;57131.81;;;-146.93;67.79
21664;BME280;10993;52.510;13.456;2023-02-18T03:11:40;56528.41;;;-146.93;67.72
21664;BME280;10993;52.510;13.456;2023-02-18T03:16:45;56585.09;;;-146.93;67.28
21664;BME280;10993;52.510;13.456;2023-02-18T03:21:52;56587.13;;;-146.93;67.23
21664;BME280;10993;52.510;13.456;2023-02-18T03:26:58;56556.75;;;-146.93;67.40
21664;BME280;10993;52.510;13.456;2023-02-18T03:32:04;56552.69;;;-146.93;66.86
21664;BME280;10993;52.510;13.456;2023-02-18T03:37:08;56358.31;;;-146.93;66.86
21664;BME280;10993;52.510;13.456;2023-02-18T03:42:10;56581.03;;;-146.93;66.06
21664;BME280;10993;52.510;13.456;2023-02-18T03:47:11;56577.00;;;-146.93;65.19
21664;BME280;10993;52.510;13.456;2023-02-18T03:52:13;56587.13;;;-146.93;64.73
21664;BME280;10993;52.510;13.456;2023-02-18T03:57:13;56593.19;;;-146.93;64.59
21664;BME280;10993;52.510;13.456;2023-02-18T04:02:13;56601.28;;;-146.93;64.68
21664;BME280;10993;52.510;13.456;2023-02-18T04:07:15;56579.00;;;-146.93;64.57
21664;BME280;10993;52.510;13.456;2023-02-18T04:12:15;56585.09;;;-146.93;64.32
21664;BME280;10993;52.510;13.456;2023-02-18T04:17:16;56589.13;;;-146.93;64.20
21664;BME280;10993;52.510;13.456;2023-02-18T04:22:18;56562.81;;;-146.93;64.21
21664;BME280;10993;52.510;13.456;2023-02-18T04:27:18;56579.00;;;-146.93;64.59
21664;BME280;10993;52.510;13.456;2023-02-18T04:32:18;56583.06;;;-146.93;64.37
21664;BME280;10993;52.510;13.456;2023-02-18T04:37:20;56536.50;;;-146.93;65.61
21664;BME280;10993;52.510;13.456;2023-02-18T04:42:20;56593.19;;;-146.93;65.42
21664;BME280;10993;52.510;13.456;2023-02-18T04:47:21;56516.25;;;-146.93;65.35
21664;BME280;10993;52.510;13.456;2023-02-18T04:52:22;56599.25;;;-146.93;65.34
21664;BME280;10993;52.510;13.456;2023-02-18T04:57:23;56581.03;;;-146.93;65.47
21664;BME280;10993;52.510;13.456;2023-02-18T05:02:23;56562.81;;;-146.93;65.50
21664;BME280;10993;52.510;13.456;2023-02-18T05:07:25;56568.88;;;-146.93;64.89
21664;BME280;10993;52.510;13.456;2023-02-18T05:12:25;57496.31;;;-146.93;65.21
21664;BME280;10993;52.510;13.456;2023-02-18T05:17:26;56568.88;;;-146.93;64.84
21664;BME280;10993;52.510;13.456;2023-02-18T05:22:27;56629.63;;;-146.93;63.85
21664;BME280;10993;52.510;13.456;2023-02-18T05:27:28;56558.75;;;-146.93;63.43
21664;BME280;10993;52.510;13.456;2023-02-18T05:32:28;56581.03;;;-146.93;62.74
21664;BME280;10993;52.510;13.456;2023-02-18T05:37:30;56819.97;;;-146.93;62.09
21664;BME280;10993;52.510;13.456;2023-02-18T05:42:30;56595.22;;;-146.93;61.24
21664;BME280;10993;52.510;13.456;2023-02-18T05:47:32;56572.94;;;-146.93;60.98
21664;BME280;10993;52.510;13.456;2023-02-18T05:52:33;56609.38;;;-146.93;60.64
21664;BME280;10993;52.510;13.456;2023-02-18T05:57:34;56597.25;;;-146.93;59.93
21664;BME280;10993;52.510;13.456;2023-02-18T06:02:34;56599.25;;;-146.93;59.97
21664;BME280;10993;52.510;13.456;2023-02-18T06:07:36;56609.38;;;-146.93;59.14
21664;BME280;10993;52.510;13.456;2023-02-18T06:12:37;56577.00;;;-146.93;58.72
21664;BME280;10993;52.510;13.456;2023-02-18T06:17:37;56572.94;;;-146.93;58.13
21664;BME280;10993;52.510;13.456;2023-02-18T06:22:39;56564.84;;;-146.93;58.16
21664;BME280;10993;52.510;13.456;2023-02-18T06:27:39;56552.69;;;-146.93;57.48
21664;BME280;10993;52.510;13.456;2023-02-18T06:32:39;56585.09;;;-146.93;57.24
21664;BME280;10993;52.510;13.456;2023-02-18T06:37:41;56589.13;;;-146.93;57.62
21664;BME280;10993;52.510;13.456;2023-02-18T06:42:41;56530.41;;;-146.93;57.04
21664;BME280;10993;52.510;13.456;2023-02-18T06:47:42;56550.66;;;-146.93;56.91
21664;BME280;10993;52.510;13.456;2023-02-18T06:52:43;56593.19;;;-146.93;56.85
21664;BME280;10993;52.510;13.456;2023-02-18T06:57:44;56581.03;;;-146.93;56.99
21664;BME280;10993;52.510;13.456;2023-02-18T07:02:44;56562.81;;;-146.93;57.07
21664;BME280;10993;52.510;13.456;2023-02-18T07:07:46;56587.13;;;-146.93;56.89
21664;BME280;10993;52.510;13.456;2023-02-18T07:12:46;56536.50;;;-146.93;56.78
21664;BME280;10993;52.510;13.456;2023-02-18T07:17:49;56599.25;;;-146.93;56.30
21664;BME280;10993;52.510;13.456;2023-02-18T07:22:52;56560.78;;;-146.93;56.10
21664;BME280;10993;52.510;13.456;2023-02-18T07:27:52;56609.38;;;-146.93;56.17
21664;BME280;10993;52.510;13.456;2023-02-18T07:32:52;56613.44;;;-146.93;55.56
21664;BME280;10993;52.510;13.456;2023-02-18T07:37:54;56591.16;;;-146.93;56.12
21664;BME280;10993;52.510;13.456;2023-02-18T07:42:56;56611.41;;;-146.93;56.88
21664;BME280;10993;52.510;13.456;2023-02-18T07:47:57;56619.50;;;-146.93;56.89
21664;BME280;10993;52.510;13.456;2023-02-18T07:52:59;56577.00;;;-146.93;57.06
21664;BME280;10993;52.510;13.456;2023-02-18T07:57:59;56587.13;;;-146.93;57.17
21664;BME280;10993;52.510;13.456;2023-02-18T08:03:01;56530.41;;;-146.93;60.01
21664;BME280;10993;52.510;13.456;2023-02-18T08:08:03;56615.47;;;-146.93;63.31
21664;BME280;10993;52.510;13.456;2023-02-18T08:13:04;56629.63;;;-146.93;63.28
21664;BME280;10993;52.510;13.456;2023-02-18T08:18:05;56581.03;;;-146.93;63.59
21664;BME280;10993;52.510;13.456;2023-02-18T08:23:08;56617.47;;;-146.93;63.37
21664;BME280;10993;52.510;13.456;2023-02-18T08:28:09;56589.13;;;-146.93;64.31
21664;BME280;10993;52.510;13.456;2023-02-18T08:33:09;56583.06;;;-146.93;66.77
21664;BME280;10993;52.510;13.456;2023-02-18T08:38:11;56572.94;;;-146.93;68.99
21664;BME280;10993;52.510;13.456;2023-02-18T08:43:12;56587.13;;;-146.93;69.16
21664;BME280;10993;52.510;13.456;2023-02-18T08:48:13;56591.16;;;-146.93;70.42
21664;BME280;10993;52.510;13.456;2023-02-18T08:53:15;56605.34;;;-146.93;70.43
21664;BME280;10993;52.510;13.456;2023-02-18T08:58:16;56572.94;;;-146.93;72.48
21664;BME280;10993;52.510;13.456;2023-02-18T09:03:16;56570.91;;;-146.93;73.28
21664;BME280;10993;52.510;13.456;2023-02-18T09:08:18;56591.16;;;-146.93;74.59
21664;BME280;10993;52.510;13.456;2023-02-18T09:13:18;56524.34;;;-146.93;75.28
21664;BME280;10993;52.510;13.456;2023-02-18T09:18:19;56587.13;;;-146.93;75.15
21664;BME280;10993;52.510;13.456;2023-02-18T09:23:20;56613.44;;;-146.93;75.51
21664;BME280;10993;52.510;13.456;2023-02-18T09:28:21;56479.81;;;-146.93;75.34
21664;BME280;10993;52.510;13.456;2023-02-18T09:33:22;56587.13;;;-146.93;75.71
21664;BME280;10993;52.510;13.456;2023-02-18T09:38:24;56593.19;;;-146.93;76.41
21664;BME280;10993;52.510;13.456;2023-02-18T09:43:28;56625.59;;;-146.93;77.17
21664;BME280;10993;52.510;13.456;2023-02-18T09:48:31;56842.22;;;-146.93;77.85
21664;BME280;10993;52.510;13.456;2023-02-18T09:53:36;56568.88;;;-146.93;78.54
21664;BME280;10993;52.510;13.456;2023-02-18T09:58:37;56635.72;;;-146.93;78.74
21664;BME280;10993;52.510;13.456;2023-02-18T10:03:37;56627.59;;;-146.93;79.91
21664;BME280;10993;52.510;13.456;2023-02-18T10:08:44;56568.88;;;-146.93;80.74
21664;BME280;10993;52.510;13.456;2023-02-18T10:13:45;56577.00;;;-146.93;81.85
21664;BME280;10993;52.510;13.456;2023-02-18T10:18:47;56595.22;;;-146.93;83.08
21664;BME280;10993;52.510;13.456;2023-02-18T10:23:55;56581.03;;;-146.93;83.26
21664;BME280;10993;52.510;13.456;2023-02-18T10:28:58;56574.97;;;-146.93;84.14
21664;BME280;10993;52.510;13.456;2023-02-18T10:34:03;56617.47;;;-146.93;84.18
21664;BME280;10993;52.510;13.456;2023-02-18T10:39:18;56617.47;;;-146.93;83.85
21664;BME280;10993;52.510;13.456;2023-02-18T10:44:29;56544.59;;;-146.93;83.50
21664;BME280;10993;52.510;13.456;2023-02-18T10:49:47;56564.84;;;-146.93;85.01
21664;BME280;10993;52.510;13.456;2023-02-18T10:54:58;56568.88;;;-146.93;85.15
21664;BME280;10993;52.510;13.456;2023-02-18T11:00:01;56479.81;;;-146.93;85.38
21664;BME280;10993;52.510;13.456;2023-02-18T11:05:17;56657.97;;;-146.93;85.46
21664;BME280;10993;52.510;13.456;2023-02-18T11:10:23;56528.41;;;-146.93;85.62
21664;BME280;10993;52.510;13.456;2023-02-18T11:15:25;56617.47;;;-146.93;84.65
21664;BME280;10993;52.510;13.456;2023-02-18T11:20:29;56493.97;;;-146.93;84.88
21664;BME280;10993;52.510;13.456;2023-02-18T11:25:33;56587.13;;;-146.93;84.01
21664;BME280;10993;52.510;13.456;2023-02-18T11:30:37;56613.44;;;-146.93;85.27
21664;BME280;10993;52.510;13.456;2023-02-18T11:35:38;56607.34;;;-146.93;86.58
21664;BME280;10993;52.510;13.456;2023-02-18T11:40:39;56617.47;;;-146.93;86.34
21664;BME280;10993;52.510;13.456;2023-02-18T11:45:40;56617.47;;;-146.93;86.88
21664;BME280;10993;52.510;13.456;2023-02-18T11:50:41;56585.09;;;-146.93;87.27
21664;BME280;10993;52.510;13.456;2023-02-18T11:55:52;56520.28;;;-146.93;87.72
21664;BME280;10993;52.510;13.456;2023-02-18T12:00:55;56577.00;;;-146.93;90.94
21664;BME280;10993;52.510;13.456;2023-02-18T12:06:00;56536.50;;;-146.93;92.15
21664;BME280;10993;52.510;13.456;2023-02-18T12:11:08;56773.38;;;-146.93;91.73
21664;BME280;10993;52.510;13.456;2023-02-18T12:16:22;56536.50;;;-146.93;91.01
21664;BME280;10993;52.510;13.456;2023-02-18T12:21:31;56589.13;;;-146.93;90.71
21664;BME280;10993;52.510;13.456;2023-02-18T12:26:43;56611.41;;;-146.93;90.67
21664;BME280;10993;52.510;13.456;2023-02-18T12:32:04;56738.97;;;-146.93;90.71
21664;BME280;10993;52.510;13.456;2023-02-18T12:37:29;56546.63;;;-146.93;91.22
21664;BME280;10993;52.510;13.456;2023-02-18T12:42:48;56629.63;;;-146.93;92.23
21664;BME280;10993;52.510;13.456;2023-02-18T12:48:10;56645.81;;;-146.93;92.84
21664;BME280;10993;52.510;13.456;2023-02-18T12:53:31;56629.63;;;-146.93;92.70
21664;BME280;10993;52.510;13.456;2023-02-18T12:58:45;56637.72;;;-146.93;93.12
21664;BME280;10993;52.510;13.456;2023-02-18T13:04:11;56625.59;;;-146.93;92.89
21664;BME280;10993;52.510;13.456;2023-02-18T13:09:25;56694.41;;;-146.93;92.34
21664;BME280;10993;52.510;13.456;2023-02-18T13:14:47;56670.13;;;-146.93;91.20
21664;BME280;10993;52.510;13.456;2023-02-18T13:19:51;56670.13;;;-146.93;90.54
21664;BME280;10993;52.510;13.456;2023-02-18T13:24:56;56698.47;;;-146.93;91.27
21664;BME280;10993;52.510;13.456;2023-02-18T13:30:09;56670.13;;;-146.93;92.20
21664;BME280;10993;52.510;13.456;2023-02-18T13:35:20;56714.66;;;-146.93;92.29
21664;BME280;10993;52.510;13.456;2023-02-18T13:40:24;56690.38;;;-146.93;92.96
21664;BME280;10993;52.510;13.456;2023-02-18T13:45:29;56647.84;;;-146.93;92.84
21664;BME280;10993;52.510;13.456;2023-02-18T13:50:37;56702.53;;;-146.93;93.17
21664;BME280;10993;52.510;13.456;2023-02-18T13:55:41;56682.28;;;-146.93;93.38
21664;BME280;10993;52.510;13.456;2023-02-18T14:00:50;56666.06;;;-146.93;94.40
21664;BME280;10993;52.510;13.456;2023-02-18T14:05:55;56682.28;;;-146.93;93.89
21664;BME280;10993;52.510;13.456;2023-02-18T14:11:23;56670.13;;;-146.93;94.06
21664;BME280;10993;52.510;13.456;2023-02-18T14:22:26;56700.50;;;-146.93;94.11
21664;BME280;10993;52.510;13.456;2023-02-18T14:27:27;56680.25;;;-146.93;93.94
21664;BME280;10993;52.510;13.456;2023-02-18T14:32:29;56678.22;;;-146.93;93.54
21664;BME280;10993;52.510;13.456;2023-02-18T14:43:22;56692.41;;;-146.93;92.83
21664;BME280;10993;52.510;13.456;2023-02-18T14:48:39;56706.56;;;-146.93;92.90
21664;BME280;10993;52.510;13.456;2023-02-18T14:53:43;56655.94;;;-146.93;92.33
21664;BME280;10993;52.510;13.456;2023-02-18T14:58:46;56702.53;;;-146.93;93.03
21664;BME280;10993;52.510;13.456;2023-02-18T15:03:50;56664.06;;;-146.93;93.20
21664;BME280;10993;52.510;13.456;2023-02-18T15:08:51;56686.31;;;-146.93;93.73
21664;BME280;10993;52.510;13.456;2023-02-18T15:13:51;56698.47;;;-146.93;93.86
21664;BME280;10993;52.510;13.456;2023-02-18T15:18:55;56672.16;;;-146.93;93.37
21664;BME280;10993;52.510;13.456;2023-02-18T15:24:02;56694.41;;;-146.93;92.70
21664;BME280;10993;52.510;13.456;2023-02-18T15:29:05;56686.31;;;-146.93;93.20
21664;BME280;10993;52.510;13.456;2023-02-18T15:34:31;56698.47;;;-146.93;92.75
21664;BME280;10993;52.510;13.456;2023-02-18T15:39:32;56686.31;;;-146.93;92.37
21664;BME280;10993;52.510;13.456;2023-02-18T15:44:35;56664.06;;;-146.93;91.62
21664;BME280;10993;52.510;13.456;2023-02-18T15:49:38;56680.25;;;-146.93;91.44
21664;BME280;10993;52.510;13.456;2023-02-18T15:54:40;56710.63;;;-146.93;90.84
21664;BME280;10993;52.510;13.456;2023-02-18T15:59:46;56728.84;;;-146.93;90.25
21664;BME280;10993;52.510;13.456;2023-02-18T16:04:56;56670.13;;;-146.93;91.07
21664;BME280;10993;52.510;13.456;2023-02-18T16:10:09;56706.56;;;-146.93;91.01
21664;BME280;10993;52.510;13.456;2023-02-18T16:15:16;56680.25;;;-146.93;90.98
21664;BME280;10993;52.510;13.456;2023-02-18T16:20:27;56698.47;;;-146.93;91.33
21664;BME280;10993;52.510;13.456;2023-02-18T16:25:40;56678.22;;;-146.93;91.04
21664;BME280;10993;52.510;13.456;2023-02-18T16:30:42;56694.41;;;-146.93;92.16
21664;BME280;10993;52.510;13.456;2023-02-18T16:35:45;56666.06;;;-146.93;92.93
21664;BME280;10993;52.510;13.456;2023-02-18T16:40:46;56662.03;;;-146.93;92.58
21664;BME280;10993;52.510;13.456;2023-02-18T16:45:48;56666.06;;;-146.93;92.59
21664;BME280;10993;52.510;13.456;2023-02-18T16:50:50;56698.47;;;-146.93;91.92
21664;BME280;10993;52.510;13.456;2023-02-18T16:55:51;56587.13;;;-146.93;92.14
21664;BME280;10993;52.510;13.456;2023-02-18T17:00:52;56477.78;;;-146.93;93.28
21664;BME280;10993;52.510;13.456;2023-02-18T17:05:54;56629.63;;;-146.93;92.37
21664;BME280;10993;52.510;13.456;2023-02-18T17:10:56;56607.34;;;-146.93;92.91
21664;BME280;10993;52.510;13.456;2023-02-18T17:15:57;56548.66;;;-146.93;92.70
21664;BME280;10993;52.510;13.456;2023-02-18T17:20:59;56653.94;;;-146.93;91.67
21664;BME280;10993;52.510;13.456;2023-02-18T17:26:00;56611.41;;;-146.93;92.27
21664;BME280;10993;52.510;13.456;2023-02-18T17:31:00;56635.72;;;-146.93;92.04
21664;BME280;10993;52.510;13.456;2023-02-18T17:36:02;56607.34;;;-146.93;91.74
21664;BME280;10993;52.510;13.456;2023-02-18T17:41:03;56500.06;;;-146.93;90.89
21664;BME280;10993;52.510;13.456;2023-02-18T17:46:04;56607.34;;;-146.93;90.54
21664;BME280;10993;52.510;13.456;2023-02-18T17:51:06;56619.50;;;-146.93;90.41
21664;BME280;10993;52.510;13.456;2023-02-18T17:56:10;56601.28;;;-146.93;90.05
21664;BME280;10993;52.510;13.456;2023-02-18T18:01:12;56617.47;;;-146.93;89.96
21664;BME280;10993;52.510;13.456;2023-02-18T18:06:16;56617.47;;;-146.93;89.39
21664;BME280;10993;52.510;13.456;2023-02-18T18:11:18;57046.75;;;-146.93;88.90
21664;BME280;10993;52.510;13.456;2023-02-18T18:16:20;56601.28;;;-146.93;87.71
21664;BME280;10993;52.510;13.456;2023-02-18T18:21:27;56629.63;;;-146.93;87.73
21664;BME280;10993;52.510;13.456;2023-02-18T18:26:28;56566.88;;;-146.93;87.94
21664;BME280;10993;52.510;13.456;2023-02-18T18:31:29;56617.47;;;-146.93;87.21
21664;BME280;10993;52.510;13.456;2023-02-18T18:36:32;56605.34;;;-146.93;86.94
21664;BME280;10993;52.510;13.456;2023-02-18T18:41:32;56763.28;;;-146.93;86.78
21664;BME280;10993;52.510;13.456;2023-02-18T18:46:33;56577.00;;;-146.93;85.87
21664;BME280;10993;52.510;13.456;2023-02-18T18:51:35;56593.19;;;-146.93;85.96
21664;BME280;10993;52.510;13.456;2023-02-18T18:56:35;56589.13;;;-146.93;85.68
21664;BME280;10993;52.510;13.456;2023-02-18T19:01:37;56629.63;;;-146.93;84.67
21664;BME280;10993;52.510;13.456;2023-02-18T19:06:39;56633.69;;;-146.93;84.90
21664;BME280;10993;52.510;13.456;2023-02-18T19:11:39;56605.34;;;-146.93;84.13
21664;BME280;10993;52.510;13.456;2023-02-18T19:16:41;56534.47;;;-146.93;84.24
21664;BME280;10993;52.510;13.456;2023-02-18T19:21:43;56609.38;;;-146.93;83.71
21664;BME280;10993;52.510;13.456;2023-02-18T19:26:45;56629.63;;;-146.93;83.39
21664;BME280;10993;52.510;13.456;2023-02-18T19:31:45;56599.25;;;-146.93;83.99
21664;BME280;10993;52.510;13.456;2023-02-18T19:36:47;56623.56;;;-146.93;83.66
21664;BME280;10993;52.510;13.456;2023-02-18T19:41:47;56601.28;;;-146.93;83.94
21664;BME280;10993;52.510;13.456;2023-02-18T19:46:48;56619.50;;;-146.93;83.46
21664;BME280;10993;52.510;13.456;2023-02-18T19:51:49;56603.31;;;-146.93;82.86
21664;BME280;10993;52.510;13.456;2023-02-18T19:56:50;56593.19;;;-146.93;82.78
21664;BME280;10993;52.510;13.456;2023-02-18T20:01:50;56657.97;;;-146.93;82.41
21664;BME280;10993;52.510;13.456;2023-02-18T20:06:52;56595.22;;;-146.93;81.39
21664;BME280;10993;52.510;13.456;2023-02-18T20:11:52;56607.34;;;-146.93;82.16
21664;BME280;10993;52.510;13.456;2023-02-18T20:16:53;56631.66;;;-146.93;81.63
21664;BME280;10993;52.510;13.456;2023-02-18T20:21:54;56593.19;;;-146.93;82.20
21664;BME280;10993;52.510;13.456;2023-02-18T20:26:55;56593.19;;;-146.93;81.40
21664;BME280;10993;52.510;13.456;2023-02-18T20:31:56;56609.38;;;-146.93;81.92
21664;BME280;10993;52.510;13.456;2023-02-18T20:36:58;56647.84;;;-146.93;81.75
21664;BME280;10993;52.510;13.456;2023-02-18T20:41:59;56589.13;;;-146.93;82.30
21664;BME280;10993;52.510;13.456;2023-02-18T20:46:59;56564.84;;;-146.93;83.14
21664;BME280;10993;52.510;13.456;2023-02-18T20:52:01;56625.59;;;-146.93;83.13
21664;BME280;10993;52.510;13.456;2023-02-18T20:57:01;56579.00;;;-146.93;83.26
21664;BME280;10993;52.510;13.456;2023-02-18T21:02:02;56487.91;;;-146.93;83.70
21664;BME280;10993;52.510;13.456;2023-02-18T21:07:04;56635.72;;;-146.93;83.78
21664;BME280;10993;52.510;13.456;2023-02-18T21:12:05;56475.75;;;-146.93;83.94
21664;BME280;10993;52.510;13.456;2023-02-18T21:17:05;56560.78;;;-146.93;83.95
21664;BME280;10993;52.510;13.456;2023-02-18T21:22:07;56572.94;;;-146.93;84.27
21664;BME280;10993;52.510;13.456;2023-02-18T21:27:08;56629.63;;;-146.93;83.87
21664;BME280;10993;52.510;13.456;2023-02-18T21:32:09;56629.63;;;-146.93;83.52
21664;BME280;10993;52.510;13.456;2023-02-18T21:37:10;56718.72;;;-146.93;82.93
21664;BME280;10993;52.510;13.456;2023-02-18T21:42:11;56613.44;;;-146.93;83.13
21664;BME280;10993;52.510;13.456;2023-02-18T21:47:11;56500.06;;;-146.93;83.88
21664;BME280;10993;52.510;13.456;2023-02-18T21:52:13;56623.56;;;-146.93;83.53
21664;BME280;10993;52.510;13.456;2023-02-18T21:57:15;56601.28;;;-146.93;83.09
21664;BME280;10993;52.510;13.456;2023-02-18T22:02:18;56627.59;;;-146.93;82.98
21664;BME280;10993;52.510;13.456;2023-02-18T22:07:21;56577.00;;;-146.93;83.30
21664;BME280;10993;52.510;13.456;2023-02-18T22:12:23;56611.41;;;-146.93;82.29
21664;BME280;10993;52.510;13.456;2023-02-18T22:17:23;56609.38;;;-146.93;82.61
21664;BME280;10993;52.510;13.456;2023-02-18T22:22:25;56585.09;;;-146.93;82.32
21664;BME280;10993;52.510;13.456;2023-02-18T22:27:25;56574.97;;;-146.93;81.88
21664;BME280;10993;52.510;13.456;2023-02-18T22:32:26;56605.34;;;-146.93;82.41
21664;BME280;10993;52.510;13.456;2023-02-18T22:37:28;56491.94;;;-146.93;81.33
21664;BME280;10993;52.510;13.456;2023-02-18T22:42:28;56601.28;;;-146.93;81.89
21664;BME280;10993;52.510;13.456;2023-02-18T22:47:29;56574.97;;;-146.93;81.72
21664;BME280;10993;52.510;13.456;2023-02-18T22:52:30;56633.69;;;-146.93;81.17
21664;BME280;10993;52.510;13.456;2023-02-18T22:57:31;56613.44;;;-146.93;80.95
21664;BME280;10993;52.510;13.456;2023-02-18T23:02:31;56601.28;;;-146.93;81.25
21664;BME280;10993;52.510;13.456;2023-02-18T23:07:33;56629.63;;;-146.93;80.70
21664;BME280;10993;52.510;13.456;2023-02-18T23:12:33;56585.09;;;-146.93;79.03
21664;BME280;10993;52.510;13.456;2023-02-18T23:17:33;56621.53;;;-146.93;79.79
21664;BME280;10993;52.510;13.456;2023-02-18T23:22:35;56601.28;;;-146.93;81.19
21664;BME280;10993;52.510;13.456;2023-02-18T23:27:36;56589.13;;;-146.93;80.22
21664;BME280;10993;52.510;13.456;2023-02-18T23:32:37;56623.56;;;-146.93;80.36
21664;BME280;10993;52.510;13.456;2023-02-18T23:37:39;56619.50;;;-146.93;78.81
21664;BME280;10993;52.510;13.456;2023-02-18T23:42:57;56562.81;;;-146.93;77.40
21664;BME280;10993;52.510;13.456;2023-02-18T23:47:58;56566.88;;;-146.93;77.84
21664;BME280;10993;52.510;13.456;2023-02-18T23:52:59;56607.34;;;-146.93;77.39
21664;BME280;10993;52.510;13.456;2023-02-18T23:58:00;56621.53;;;-146.93;77.42
